Terminal Aerodrome Forecast
Issued by NWS Wilmington, OH

Current Version | Previous Version | Graphics & Text | Print | Product List | Glossary On
Versions: 1 2 3 4 5 6 7 8 9 10 11 12 13 14 15 16 17 18 19 20 21 22 23 24 25 26 27
217
FTUS41 KILN 291143
TAFILN
TAF
KILN 291143Z 2912/3012 26008KT P6SM SCT005 BKN150
      TEMPO 2912/2914 4SM BR OVC006
     FM291500 24014G23KT P6SM FEW040 SCT250
     FM300100 22005KT P6SM SCT080 BKN200=

USA.gov is the U.S. government's official web portal to all federal, state and local government web resources and services.